Time;durP1;ratioP1;P1;durP2;ratioP2;P2;SDS_P1;SDS_P2;PMS_P1;PMS_P2;Temp;Humidity;BMP_temperature;BMP_pressure;BME280_temperature;BME280_humidity;BME280_pressure;Samples;Min_cycle;Max_cycle;Signal;HPM_P1;HPM_P2
2021/08/31 00:01:17;;;;;;;;;;;;;;;22.32;52.40;101798.97;5100998;28;20315;-74
2021/08/31 00:03:45;;;;;;;;;;;;;;;22.33;52.48;101806.09;5102752;27;19931;-74
2021/08/31 00:06:13;;;;;;;;;;;;;;;22.32;52.06;101798.97;5102124;27;19976;-75
2021/08/31 00:08:41;;;;;;;;;;;;;;;22.33;51.94;101802.56;5104450;27;19923;-75
2021/08/31 00:11:09;;;;;;;;;;;;;;;22.33;52.47;101806.09;5097590;28;19950;-74
2021/08/31 00:13:38;;;;;;;;;;;;;;;22.34;52.41;101801.59;5100444;28;19924;-74
2021/08/31 00:16:06;;;;;;;;;;;;;;;22.34;52.23;101802.47;5100773;27;19935;-74
2021/08/31 00:18:35;;;;;;;;;;;;;;;22.34;52.22;101804.31;5100701;27;19932;-73
2021/08/31 00:21:03;;;;;;;;;;;;;;;22.34;52.44;101809.69;5100099;28;20010;-74
2021/08/31 00:23:31;;;;;;;;;;;;;;;22.35;51.69;101806.00;5098095;28;19931;-74
2021/08/31 00:25:59;;;;;;;;;;;;;;;22.35;51.66;101808.72;5095606;27;19934;-75
2021/08/31 00:28:27;;;;;;;;;;;;;;;22.34;52.28;101807.84;5097964;28;19932;-75
2021/08/31 00:30:56;;;;;;;;;;;;;;;22.35;52.45;101808.72;5099334;28;19935;-74
2021/08/31 00:33:24;;;;;;;;;;;;;;;22.34;52.36;101807.84;5126235;27;19978;-73
2021/08/31 00:35:52;;;;;;;;;;;;;;;22.35;52.66;101811.41;5097178;28;19923;-74
2021/08/31 00:38:20;;;;;;;;;;;;;;;22.35;52.48;101814.09;5097301;27;19950;-75
2021/08/31 00:40:48;;;;;;;;;;;;;;;22.35;51.85;101814.09;5093666;28;19958;-74
2021/08/31 00:43:17;;;;;;;;;;;;;;;22.35;52.15;101812.31;5098033;28;19936;-74
2021/08/31 00:45:45;;;;;;;;;;;;;;;22.35;51.53;101815.00;5099610;28;19935;-73
2021/08/31 00:48:15;;;;;;;;;;;;;;;22.36;52.28;101810.47;5097429;27;19931;-73
2021/08/31 00:50:43;;;;;;;;;;;;;;;22.36;52.61;101810.47;5095799;28;19931;-74
2021/08/31 00:53:11;;;;;;;;;;;;;;;22.35;52.35;101808.72;5091979;27;19935;-74
2021/08/31 00:55:39;;;;;;;;;;;;;;;22.35;52.14;101814.09;5091372;28;19939;-74
2021/08/31 00:58:07;;;;;;;;;;;;;;;22.35;51.82;101808.72;5097434;27;19945;-75
2021/08/31 01:00:35;;;;;;;;;;;;;;;22.35;51.84;101803.31;5099170;27;19936;-75
2021/08/31 01:03:03;;;;;;;;;;;;;;;22.35;52.09;101814.09;5100818;28;19924;-75
2021/08/31 01:05:33;;;;;;;;;;;;;;;22.35;51.92;101808.72;5096502;27;20061;-75
2021/08/31 01:08:01;;;;;;;;;;;;;;;22.35;51.78;101815.00;5095892;27;19932;-75
2021/08/31 01:10:30;;;;;;;;;;;;;;;22.34;52.46;101810.53;5097661;27;19957;-75
2021/08/31 01:12:58;;;;;;;;;;;;;;;22.35;51.94;101822.19;5097208;28;20541;-72
2021/08/31 01:15:28;;;;;;;;;;;;;;;22.35;52.22;101814.09;5100292;28;19924;-75
2021/08/31 01:17:56;;;;;;;;;;;;;;;22.35;52.34;101819.50;5097096;28;19939;-74
2021/08/31 01:20:25;;;;;;;;;;;;;;;22.35;52.16;101814.09;5096030;28;19996;-74
2021/08/31 01:23:04;;;;;;;;;;;;;;;22.34;52.42;101813.25;5095620;28;20680;-74
2021/08/31 01:25:33;;;;;;;;;;;;;;;22.35;52.82;101817.72;5100848;27;19959;-75
2021/08/31 01:28:01;;;;;;;;;;;;;;;22.36;52.28;101821.25;5104618;27;19927;-74
2021/08/31 01:30:29;;;;;;;;;;;;;;;22.35;53.16;101816.78;5098334;28;19954;-75
2021/08/31 01:32:57;;;;;;;;;;;;;;;22.36;52.61;101823.97;5102813;28;19989;-74
2021/08/31 01:35:25;;;;;;;;;;;;;;;22.35;52.32;101822.19;5096557;27;19963;-75
2021/08/31 01:37:53;;;;;;;;;;;;;;;22.35;52.53;101819.50;5095211;28;19984;-75
2021/08/31 01:40:21;;;;;;;;;;;;;;;22.34;52.67;101817.78;5099425;28;19975;-75
2021/08/31 01:42:51;;;;;;;;;;;;;;;22.35;53.58;101823.09;5102012;28;19931;-76
2021/08/31 01:45:19;;;;;;;;;;;;;;;22.34;52.67;101815.09;5102276;27;19978;-76
2021/08/31 01:47:46;;;;;;;;;;;;;;;22.34;53.52;101817.78;5103499;28;19924;-74
2021/08/31 01:50:15;;;;;;;;;;;;;;;22.35;53.48;101819.50;5093978;28;19924;-74
2021/08/31 01:52:42;;;;;;;;;;;;;;;22.35;52.86;101824.88;5098532;28;19923;-76
2021/08/31 01:55:11;;;;;;;;;;;;;;;22.34;52.92;101824.03;5100469;28;19934;-73
2021/08/31 01:57:39;;;;;;;;;;;;;;;22.35;52.76;101816.78;5102887;28;19954;-74
2021/08/31 02:00:10;;;;;;;;;;;;;;;22.35;52.74;101816.78;5099486;28;19927;-74
2021/08/31 02:02:40;;;;;;;;;;;;;;;22.33;53.02;101814.19;5098663;28;19967;-74
2021/08/31 02:05:09;;;;;;;;;;;;;;;22.33;52.59;101816.88;5097129;28;19928;-74
2021/08/31 02:07:37;;;;;;;;;;;;;;;22.34;52.89;101810.53;5106780;28;19976;-74
2021/08/31 02:10:06;;;;;;;;;;;;;;;22.34;52.59;101813.25;5103343;28;19950;-74
2021/08/31 02:12:34;;;;;;;;;;;;;;;22.35;52.62;101806.00;5104437;28;20035;-75
2021/08/31 02:15:03;;;;;;;;;;;;;;;22.35;52.45;101806.00;5100200;28;20011;-73
2021/08/31 02:17:32;;;;;;;;;;;;;;;22.35;52.74;101809.63;5098120;28;20029;-72
2021/08/31 02:20:01;;;;;;;;;;;;;;;22.35;52.83;101819.50;5094586;28;19932;-74
2021/08/31 02:22:28;;;;;;;;;;;;;;;22.34;52.48;101812.38;5099782;28;19924;-75
2021/08/31 02:24:56;;;;;;;;;;;;;;;22.36;52.45;101808.69;5099692;28;20873;-74
2021/08/31 02:27:24;;;;;;;;;;;;;;;22.36;52.13;101813.19;5101591;28;19980;-75
2021/08/31 02:29:52;;;;;;;;;;;;;;;22.34;52.94;101807.84;5097018;28;19973;-74
2021/08/31 02:32:20;;;;;;;;;;;;;;;22.33;52.42;101805.25;5094133;28;19950;-74
2021/08/31 02:34:50;;;;;;;;;;;;;;;22.32;52.60;101808.91;5097977;28;19927;-74
2021/08/31 02:37:18;;;;;;;;;;;;;;;22.31;52.60;101808.06;5097761;28;20644;-74
2021/08/31 02:39:46;;;;;;;;;;;;;;;22.33;52.86;101802.56;5100313;28;19932;-74
2021/08/31 02:42:14;;;;;;;;;;;;;;;22.33;52.60;101802.56;5097010;28;19932;-75
2021/08/31 02:44:42;;;;;;;;;;;;;;;22.34;52.59;101794.38;5098597;28;19976;-74
2021/08/31 02:47:10;;;;;;;;;;;;;;;22.36;52.35;101805.09;5095948;28;19934;-74
2021/08/31 02:49:38;;;;;;;;;;;;;;;22.36;52.55;101805.09;5096546;28;19999;-75
2021/08/31 02:52:08;;;;;;;;;;;;;;;22.37;52.27;101806.84;5100593;28;20198;-71
2021/08/31 02:54:36;;;;;;;;;;;;;;;22.37;52.20;101806.84;5101398;28;19938;-75
2021/08/31 02:57:04;;;;;;;;;;;;;;;22.36;52.01;101810.47;5102371;27;19928;-76
2021/08/31 02:59:32;;;;;;;;;;;;;;;22.32;52.70;101812.44;5098456;28;19932;-76
2021/08/31 03:02:08;;;;;;;;;;;;;;;22.32;52.60;101817.84;5098571;28;19953;-76
2021/08/31 03:04:38;;;;;;;;;;;;;;;22.32;52.56;101811.59;5100870;28;19932;-75
2021/08/31 03:07:08;;;;;;;;;;;;;;;22.32;52.44;101817.84;5103142;28;19961;-75
2021/08/31 03:09:36;;;;;;;;;;;;;;;22.33;52.17;101813.34;5101694;27;19942;-75
2021/08/31 03:12:05;;;;;;;;;;;;;;;22.33;52.41;101816.03;5099084;28;20057;-76
2021/08/31 03:14:33;;;;;;;;;;;;;;;22.34;52.23;101812.38;5092977;28;19949;-76
2021/08/31 03:17:01;;;;;;;;;;;;;;;22.33;52.06;101816.88;5099771;27;19931;-74
2021/08/31 03:19:29;;;;;;;;;;;;;;;22.33;52.25;101822.28;5103419;28;19997;-74
2021/08/31 03:21:58;;;;;;;;;;;;;;;22.32;52.55;101822.38;5101259;27;21021;-74
2021/08/31 03:24:28;;;;;;;;;;;;;;;22.30;52.39;101814.38;5102459;28;19981;-74
2021/08/31 03:26:56;;;;;;;;;;;;;;;22.28;52.63;101816.28;5098116;27;19928;-73
2021/08/31 03:29:25;;;;;;;;;;;;;;;22.27;52.73;101811.84;5127545;27;20334;-73
2021/08/31 03:31:52;;;;;;;;;;;;;;;22.30;52.37;101813.50;5100845;27;19932;-75
2021/08/31 03:34:21;;;;;;;;;;;;;;;22.31;52.34;101813.44;5107055;28;19932;-75
2021/08/31 03:36:50;;;;;;;;;;;;;;;22.31;52.56;101813.44;5100547;27;19931;-74
2021/08/31 03:39:18;;;;;;;;;;;;;;;22.31;52.27;101824.22;5101850;28;20002;-74
2021/08/31 03:41:48;;;;;;;;;;;;;;;22.31;52.56;101826.03;5096132;28;21087;-74
2021/08/31 03:44:16;;;;;;;;;;;;;;;22.31;52.17;101826.03;5128378;27;20265;-75
2021/08/31 03:46:44;;;;;;;;;;;;;;;22.29;52.46;101823.44;5101551;28;19940;-75
2021/08/31 03:49:12;;;;;;;;;;;;;;;22.28;52.89;101821.69;5102170;27;20031;-75
2021/08/31 03:51:41;;;;;;;;;;;;;;;22.27;52.61;101828.03;5100260;28;19943;-75
2021/08/31 03:54:09;;;;;;;;;;;;;;;22.26;52.57;101818.25;5098105;28;19954;-73
2021/08/31 03:56:37;;;;;;;;;;;;;;;22.27;52.40;101827.19;5090026;27;19985;-75
2021/08/31 03:59:06;;;;;;;;;;;;;;;22.29;52.53;101833.34;5101787;27;19928;-73
2021/08/31 04:01:34;;;;;;;;;;;;;;;22.30;52.19;101833.25;5103485;27;19928;-74
2021/08/31 04:04:03;;;;;;;;;;;;;;;22.30;52.00;101835.06;5104485;28;20372;-75
2021/08/31 04:06:31;;;;;;;;;;;;;;;22.31;51.94;101842.19;5104438;28;19946;-75
2021/08/31 04:08:59;;;;;;;;;;;;;;;22.33;51.82;101848.38;5098106;27;19934;-74
2021/08/31 04:11:26;;;;;;;;;;;;;;;22.30;52.03;101852.13;5100497;27;19969;-74
2021/08/31 04:13:55;;;;;;;;;;;;;;;22.26;52.03;101850.56;5100325;27;20571;-74
2021/08/31 04:16:24;;;;;;;;;;;;;;;22.25;52.33;101840.75;5102565;27;19932;-75
2021/08/31 04:18:52;;;;;;;;;;;;;;;22.28;52.03;101839.69;5102347;28;20469;-75
2021/08/31 04:21:20;;;;;;;;;;;;;;;22.29;51.83;101841.44;5099670;28;19932;-75
2021/08/31 04:23:48;;;;;;;;;;;;;;;22.30;51.86;101844.03;5098331;28;19931;-71
2021/08/31 04:26:16;;;;;;;;;;;;;;;22.30;51.95;101845.84;5101270;27;20682;-75
2021/08/31 04:28:44;;;;;;;;;;;;;;;22.28;52.07;101854.03;5100989;27;19999;-75
2021/08/31 04:31:12;;;;;;;;;;;;;;;22.31;51.78;101855.66;5100692;27;20023;-72
2021/08/31 04:33:42;;;;;;;;;;;;;;;22.27;51.58;101854.13;5103056;28;19932;-75
2021/08/31 04:36:11;;;;;;;;;;;;;;;22.24;52.07;101854.31;5098652;28;20067;-74
2021/08/31 04:38:39;;;;;;;;;;;;;;;22.25;52.08;101851.53;5093207;28;19934;-73
2021/08/31 04:41:07;;;;;;;;;;;;;;;22.26;51.81;101858.66;5099709;27;20732;-73
2021/08/31 04:43:35;;;;;;;;;;;;;;;22.27;51.80;101860.38;5114088;27;20034;-74
2021/08/31 04:46:03;;;;;;;;;;;;;;;22.29;51.63;101863.00;5098002;28;19931;-76
2021/08/31 04:48:31;;;;;;;;;;;;;;;22.28;51.86;101864.81;5106128;28;20003;-76
2021/08/31 04:51:00;;;;;;;;;;;;;;;22.27;52.08;101863.06;5104016;27;19927;-74
2021/08/31 04:53:28;;;;;;;;;;;;;;;22.21;50.40;101866.16;5105665;28;19967;-76
2021/08/31 04:55:56;;;;;;;;;;;;;;;21.96;47.84;101867.56;5107910;28;20470;-77
2021/08/31 04:58:24;;;;;;;;;;;;;;;21.87;48.61;101871.66;5105093;28;19995;-76
2021/08/31 05:00:52;;;;;;;;;;;;;;;21.79;49.24;101870.38;5104853;27;19969;-75
2021/08/31 05:03:20;;;;;;;;;;;;;;;21.81;49.46;101871.16;5097439;28;19928;-73
2021/08/31 05:05:48;;;;;;;;;;;;;;;21.87;49.51;101868.09;5096815;27;19928;-70
2021/08/31 05:08:18;;;;;;;;;;;;;;;22.03;50.88;101868.94;5099014;28;19935;-75
2021/08/31 05:10:46;;;;;;;;;;;;;;;22.18;51.55;101871.69;5103575;28;19932;-74
2021/08/31 05:13:14;;;;;;;;;;;;;;;22.25;51.59;101870.38;5110331;27;19928;-67
2021/08/31 05:15:41;;;;;;;;;;;;;;;22.31;51.82;101879.94;5107840;27;20398;-67
2021/08/31 05:18:09;;;;;;;;;;;;;;;22.32;52.11;101885.22;5105991;28;20042;-73
2021/08/31 05:20:38;;;;;;;;;;;;;;;22.33;52.35;101872.63;5096828;28;19928;-74
2021/08/31 05:23:07;;;;;;;;;;;;;;;22.34;52.87;101869.84;5107637;28;19932;-68
2021/08/31 05:25:36;;;;;;;;;;;;;;;22.37;52.93;101872.38;5110891;27;20082;-67
2021/08/31 05:28:05;;;;;;;;;;;;;;;22.36;53.53;101870.66;5108839;28;20003;-67
2021/08/31 05:30:33;;;;;;;;;;;;;;;22.46;52.60;101873.66;5103061;28;19970;-67
2021/08/31 05:33:01;;;;;;;;;;;;;;;22.42;53.76;101868.53;5102467;28;20100;-73
2021/08/31 05:35:29;;;;;;;;;;;;;;;22.40;54.03;101868.63;5099642;27;19927;-72
2021/08/31 05:37:57;;;;;;;;;;;;;;;22.40;53.87;101871.31;5101194;28;19928;-68
2021/08/31 05:40:25;;;;;;;;;;;;;;;22.39;54.44;101874.97;5103383;28;19924;-69
2021/08/31 05:42:54;;;;;;;;;;;;;;;22.41;54.02;101874.91;5102415;28;19975;-67
2021/08/31 05:45:22;;;;;;;;;;;;;;;22.41;54.15;101874.91;5109894;27;19928;-71
2021/08/31 05:47:50;;;;;;;;;;;;;;;22.40;55.01;101874.03;5100692;28;19997;-72
2021/08/31 05:50:18;;;;;;;;;;;;;;;22.40;54.60;101868.63;5101059;28;19931;-65
2021/08/31 05:52:47;;;;;;;;;;;;;;;22.41;54.36;101866.81;5107726;28;19927;-73
2021/08/31 05:55:15;;;;;;;;;;;;;;;22.43;54.59;101871.16;5103204;28;19938;-65
2021/08/31 05:57:43;;;;;;;;;;;;;;;22.42;54.55;101877.50;5102234;28;19991;-65
2021/08/31 06:00:13;;;;;;;;;;;;;;;22.44;56.08;101875.56;5102910;28;19932;-65
2021/08/31 06:02:42;;;;;;;;;;;;;;;22.45;55.31;101874.63;5104239;28;19936;-65
2021/08/31 06:05:10;;;;;;;;;;;;;;;22.45;54.51;101874.63;5101591;28;20310;-65
2021/08/31 06:07:39;;;;;;;;;;;;;;;22.46;54.54;101876.38;5104437;28;20393;-65
2021/08/31 06:10:08;;;;;;;;;;;;;;;22.46;53.81;101870.13;5108811;28;19935;-64
2021/08/31 06:12:36;;;;;;;;;;;;;;;22.47;54.06;101871.81;5101330;28;19943;-65
2021/08/31 06:15:04;;;;;;;;;;;;;;;22.48;53.94;101878.97;5102594;28;19931;-65
2021/08/31 06:17:37;;;;;;;;;;;;;;;22.47;53.64;101878.09;5094517;28;19924;-65
2021/08/31 06:20:06;;;;;;;;;;;;;;;22.47;54.01;101879.91;5103049;28;19924;-64
2021/08/31 06:22:34;;;;;;;;;;;;;;;22.45;54.13;101885.41;5106193;28;19928;-65
2021/08/31 06:25:02;;;;;;;;;;;;;;;22.36;52.46;101876.06;5107471;28;19935;-65
2021/08/31 06:27:30;;;;;;;;;;;;;;;22.34;50.59;101877.94;5102220;28;19928;-65
2021/08/31 06:29:58;;;;;;;;;;;;;;;22.33;50.75;101875.34;5103550;28;19927;-65
2021/08/31 06:32:26;;;;;;;;;;;;;;;20.15;59.20;101887.06;5101789;28;20019;-65
2021/08/31 06:34:55;;;;;;;;;;;;;;;19.78;59.11;101880.75;5108054;28;19935;-65
2021/08/31 06:37:23;;;;;;;;;;;;;;;20.02;53.70;101876.91;5104675;28;19953;-65
2021/08/31 06:39:51;;;;;;;;;;;;;;;20.26;51.40;101883.84;5107664;28;19955;-65
2021/08/31 06:42:19;;;;;;;;;;;;;;;20.18;50.17;101885.06;5105735;28;19928;-64
2021/08/31 06:44:47;;;;;;;;;;;;;;;20.10;48.98;101878.38;5100579;28;19939;-66
2021/08/31 06:47:15;;;;;;;;;;;;;;;20.00;48.87;101880.63;5109366;27;19928;-66
2021/08/31 06:49:43;;;;;;;;;;;;;;;19.97;49.92;101881.66;5105986;28;19938;-65
2021/08/31 06:52:12;;;;;;;;;;;;;;;20.04;49.99;101891.16;5107167;27;19931;-65
2021/08/31 06:54:40;;;;;;;;;;;;;;;20.18;52.44;101870.78;5104330;28;19932;-66
2021/08/31 06:57:08;;;;;;;;;;;;;;;20.26;52.77;101871.25;5115861;28;19927;-66
2021/08/31 06:59:36;;;;;;;;;;;;;;;20.35;52.91;101873.47;5104754;28;19965;-66
2021/08/31 07:02:08;;;;;;;;;;;;;;;20.38;52.92;101875.16;5103696;27;20000;-65
2021/08/31 07:04:36;;;;;;;;;;;;;;;20.41;53.11;101866.94;5100712;27;19972;-65
2021/08/31 07:07:05;;;;;;;;;;;;;;;20.38;53.34;101881.41;5106062;28;19928;-65
2021/08/31 07:09:37;;;;;;;;;;;;;;;20.37;53.00;101876.97;5111742;28;19927;-66
2021/08/31 07:12:05;;;;;;;;;;;;;;;20.35;53.37;101872.63;5112325;28;19924;-66
2021/08/31 07:14:33;;;;;;;;;;;;;;;20.40;53.40;101870.56;5105303;28;19924;-66
2021/08/31 07:17:01;;;;;;;;;;;;;;;20.26;51.79;101876.63;5105332;27;19923;-66
2021/08/31 07:19:30;;;;;;;;;;;;;;;20.15;50.60;101877.19;5103662;27;19932;-66
2021/08/31 07:21:57;;;;;;;;;;;;;;;20.14;49.83;101874.59;5112481;28;20332;-66
2021/08/31 07:24:26;;;;;;;;;;;;;;;20.17;49.77;101878.00;5104584;28;20019;-66
2021/08/31 07:26:55;;;;;;;;;;;;;;;20.14;49.55;101883.50;5103875;28;19932;-66
2021/08/31 07:29:23;;;;;;;;;;;;;;;20.10;51.52;101878.38;5104864;28;19934;-66
2021/08/31 07:31:52;;;;;;;;;;;;;;;20.17;51.92;101882.47;5112814;27;20198;-65
2021/08/31 07:34:20;;;;;;;;;;;;;;;20.03;49.60;101875.97;5113359;28;19959;-64
2021/08/31 07:36:48;;;;;;;;;;;;;;;20.05;48.53;101875.91;5107206;28;19947;-64
2021/08/31 07:39:16;;;;;;;;;;;;;;;20.00;48.77;101883.31;5108376;28;19924;-64
2021/08/31 07:41:44;;;;;;;;;;;;;;;20.02;48.56;101884.13;5100145;28;19924;-65
2021/08/31 07:44:13;;;;;;;;;;;;;;;19.93;51.52;101879.19;5102520;28;19957;-65
2021/08/31 07:46:46;;;;;;;;;;;;;;;20.02;51.80;101884.97;5109058;28;20057;-64
2021/08/31 07:49:14;;;;;;;;;;;;;;;20.07;51.83;101874.03;5101237;28;20763;-64
2021/08/31 07:51:43;;;;;;;;;;;;;;;20.11;51.71;101883.66;5105022;28;20770;-64
2021/08/31 07:54:11;;;;;;;;;;;;;;;20.16;51.68;101892.38;5105387;27;19928;-64
2021/08/31 07:56:39;;;;;;;;;;;;;;;20.14;51.71;101888.88;5098276;28;21074;-64
2021/08/31 07:59:07;;;;;;;;;;;;;;;20.15;51.96;101889.75;5106808;28;19963;-64
2021/08/31 08:01:37;;;;;;;;;;;;;;;20.14;52.07;101878.13;5108287;28;19928;-64
2021/08/31 08:04:05;;;;;;;;;;;;;;;20.08;52.48;101881.13;5101070;28;21026;-64
2021/08/31 08:06:33;;;;;;;;;;;;;;;20.17;52.36;101882.47;5104423;28;19950;-64
2021/08/31 08:09:01;;;;;;;;;;;;;;;20.19;52.31;101885.97;5105176;28;19973;-64
2021/08/31 08:11:29;;;;;;;;;;;;;;;19.99;49.59;101886.97;5102520;28;19924;-64
2021/08/31 08:13:58;;;;;;;;;;;;;;;19.95;49.72;101891.59;5104799;28;20053;-64
2021/08/31 08:16:25;;;;;;;;;;;;;;;19.92;48.93;101883.69;5110616;28;19989;-64
2021/08/31 08:18:55;;;;;;;;;;;;;;;19.89;47.99;101887.38;5113729;28;20302;-64
2021/08/31 08:21:23;;;;;;;;;;;;;;;19.86;49.83;101884.88;5105168;28;19996;-64
2021/08/31 08:23:51;;;;;;;;;;;;;;;19.97;51.43;101894.22;5109082;28;20630;-64
2021/08/31 08:26:19;;;;;;;;;;;;;;;20.02;51.22;101893.03;5108744;28;19924;-64
2021/08/31 08:28:47;;;;;;;;;;;;;;;20.03;51.16;101885.88;5102562;28;20027;-64
2021/08/31 08:31:15;;;;;;;;;;;;;;;20.05;51.28;101883.94;5115160;28;19927;-64
2021/08/31 08:33:43;;;;;;;;;;;;;;;20.10;51.34;101886.44;5104962;28;19924;-64
2021/08/31 08:36:12;;;;;;;;;;;;;;;19.91;49.77;101881.97;5111951;28;19985;-64
2021/08/31 08:38:40;;;;;;;;;;;;;;;19.75;49.07;101881.78;5114715;28;19930;-64
2021/08/31 08:41:08;;;;;;;;;;;;;;;19.65;48.60;101873.31;5104285;28;19981;-64
2021/08/31 08:43:37;;;;;;;;;;;;;;;19.57;48.11;101876.38;5109598;28;19954;-64
2021/08/31 08:46:06;;;;;;;;;;;;;;;19.62;49.91;101868.09;5106761;28;20542;-64
2021/08/31 08:48:35;;;;;;;;;;;;;;;19.88;50.79;101876.72;5105596;28;20018;-64
2021/08/31 08:51:03;;;;;;;;;;;;;;;19.98;50.48;101874.47;5098591;28;19938;-64
2021/08/31 08:53:34;;;;;;;;;;;;;;;19.99;50.66;101873.53;5099253;28;19947;-64
2021/08/31 08:56:03;;;;;;;;;;;;;;;19.81;48.28;101865.41;5107257;28;19928;-65
2021/08/31 08:58:31;;;;;;;;;;;;;;;19.59;48.38;101873.59;5114696;28;20004;-65
2021/08/31 09:01:02;;;;;;;;;;;;;;;19.69;48.42;101871.38;5098935;28;19928;-65
2021/08/31 09:03:32;;;;;;;;;;;;;;;19.60;48.73;101871.81;5101237;28;19947;-64
2021/08/31 09:06:10;;;;;;;;;;;;;;;19.62;50.06;101867.22;5100398;28;19986;-74
2021/08/31 09:08:43;;;;;;;;;;;;;;;19.82;50.97;101869.84;5098712;28;19927;-72
2021/08/31 09:11:18;;;;;;;;;;;;;;;19.97;51.07;101870.91;5109406;28;19950;-72
2021/08/31 09:13:47;;;;;;;;;;;;;;;20.00;51.11;101867.19;5106552;27;19951;-64
2021/08/31 09:16:22;;;;;;;;;;;;;;;19.98;51.10;101867.28;5107699;28;19927;-71
2021/08/31 09:18:51;;;;;;;;;;;;;;;20.02;51.29;101870.69;5105155;28;20044;-69
2021/08/31 09:21:21;;;;;;;;;;;;;;;20.01;51.42;101860.88;5100792;28;20404;-68
2021/08/31 09:23:52;;;;;;;;;;;;;;;20.06;51.27;101864.22;5108935;28;19970;-67
2021/08/31 09:26:31;;;;;;;;;;;;;;;20.53;50.76;101869.00;5106204;28;19962;-67
2021/08/31 09:29:12;;;;;;;;;;;;;;;21.10;49.71;101859.75;5106541;28;20213;-68
2021/08/31 09:31:51;;;;;;;;;;;;;;;21.42;49.89;101864.31;5107947;28;19928;-70
2021/08/31 09:34:32;;;;;;;;;;;;;;;21.60;50.45;101867.84;5099751;28;19931;-68
2021/08/31 09:37:15;;;;;;;;;;;;;;;21.39;53.63;101866.25;5104300;28;19927;-68
2021/08/31 09:39:44;;;;;;;;;;;;;;;20.93;53.41;101860.66;5102686;28;19924;-67
2021/08/31 09:42:12;;;;;;;;;;;;;;;20.72;53.66;101862.69;5102956;28;19993;-70
2021/08/31 09:44:40;;;;;;;;;;;;;;;20.54;53.85;101865.34;5101535;27;19928;-66
2021/08/31 09:47:08;;;;;;;;;;;;;;;20.47;53.20;101865.75;5108138;28;19932;-67
2021/08/31 09:49:39;;;;;;;;;;;;;;;20.43;53.29;101865.03;5097927;28;19934;-65
2021/08/31 09:52:10;;;;;;;;;;;;;;;20.45;53.21;101860.47;5110109;28;20076;-66
2021/08/31 09:54:38;;;;;;;;;;;;;;;20.45;53.17;101856.88;5108171;28;19938;-67
2021/08/31 09:57:27;;;;;;;;;;;;;;;20.42;53.21;101863.31;5109246;28;19984;-69
2021/08/31 09:59:56;;;;;;;;;;;;;;;20.46;53.20;101858.63;5102031;28;19984;-70
2021/08/31 10:02:24;;;;;;;;;;;;;;;20.45;52.84;101855.09;5107959;28;19939;-71
2021/08/31 10:04:53;;;;;;;;;;;;;;;20.49;51.45;101853.97;5103601;28;19931;-69
2021/08/31 10:07:22;;;;;;;;;;;;;;;20.17;49.65;101856.50;5105557;28;20042;-69
2021/08/31 10:09:51;;;;;;;;;;;;;;;20.06;50.17;101861.53;5105972;28;19924;-68
2021/08/31 10:12:20;;;;;;;;;;;;;;;20.06;49.81;101859.69;5110638;28;19999;-68
2021/08/31 10:14:52;;;;;;;;;;;;;;;20.05;49.64;101863.34;5101961;28;19977;-68
2021/08/31 10:17:20;;;;;;;;;;;;;;;20.27;50.94;101862.25;5101645;28;19924;-68
2021/08/31 10:19:49;;;;;;;;;;;;;;;20.35;51.31;101865.41;5106571;28;19928;-69
2021/08/31 10:22:17;;;;;;;;;;;;;;;20.36;51.24;101867.16;5107288;28;20031;-70
2021/08/31 10:24:46;;;;;;;;;;;;;;;20.34;51.49;101858.34;5104928;28;19928;-69
2021/08/31 10:27:31;;;;;;;;;;;;;;;20.44;52.71;101858.72;5103994;28;19924;-69
2021/08/31 10:30:18;;;;;;;;;;;;;;;20.40;51.13;101849.94;5102202;28;19998;-70
2021/08/31 10:32:49;;;;;;;;;;;;;;;20.34;51.64;101850.28;5101749;28;19928;-69
2021/08/31 10:35:49;;;;;;;;;;;;;;;20.35;51.81;101846.63;5101979;28;19932;-69
2021/08/31 10:38:17;;;;;;;;;;;;;;;20.28;49.67;101855.09;5104344;28;20007;-70
2021/08/31 10:40:47;;;;;;;;;;;;;;;20.13;48.80;101848.66;5105099;28;19924;-69
2021/08/31 10:43:15;;;;;;;;;;;;;;;20.10;49.02;101855.06;5103756;28;19967;-70
2021/08/31 10:45:44;;;;;;;;;;;;;;;20.02;48.63;101858.13;5097004;28;19935;-70
2021/08/31 10:48:27;;;;;;;;;;;;;;;20.27;50.25;101858.72;5103869;28;19964;-69
2021/08/31 10:51:00;;;;;;;;;;;;;;;20.42;50.23;101857.94;5105113;28;19928;-70
2021/08/31 10:53:37;;;;;;;;;;;;;;;20.43;50.20;101856.97;5108604;28;19950;-70
2021/08/31 10:56:24;;;;;;;;;;;;;;;20.58;51.46;101858.00;5098078;28;19928;-67
2021/08/31 10:58:53;;;;;;;;;;;;;;;20.57;50.79;101869.72;5094050;28;19944;-69
2021/08/31 11:01:22;;;;;;;;;;;;;;;20.55;50.58;101858.16;5106572;28;19924;-70
2021/08/31 11:03:51;;;;;;;;;;;;;;;20.55;50.52;101860.84;5100467;28;19924;-70
2021/08/31 11:06:27;;;;;;;;;;;;;;;20.53;50.84;101854.69;5103951;28;19953;-66
2021/08/31 11:09:15;;;;;;;;;;;;;;;20.59;50.93;101856.19;5105113;28;20027;-69
2021/08/31 11:11:45;;;;;;;;;;;;;;;20.52;51.00;101855.63;5100479;28;19962;-70
2021/08/31 11:14:14;;;;;;;;;;;;;;;20.56;50.96;101855.38;5102250;28;19954;-69
2021/08/31 11:16:42;;;;;;;;;;;;;;;20.50;50.88;101855.72;5107965;28;19935;-70
2021/08/31 11:19:27;;;;;;;;;;;;;;;20.49;50.36;101856.66;5100407;28;19924;-70
2021/08/31 11:21:57;;;;;;;;;;;;;;;20.57;50.50;101854.44;5106649;28;20433;-70
2021/08/31 11:24:25;;;;;;;;;;;;;;;20.32;48.28;101844.09;5109081;27;19928;-70
2021/08/31 11:26:59;;;;;;;;;;;;;;;20.34;48.30;101852.06;5106525;28;19928;-69
2021/08/31 11:29:27;;;;;;;;;;;;;;;20.46;49.86;101850.56;5114193;27;19936;-70
2021/08/31 11:32:00;;;;;;;;;;;;;;;20.57;49.87;101849.06;5108696;28;19932;-69
2021/08/31 11:34:32;;;;;;;;;;;;;;;20.53;50.13;101846.63;5102756;28;19954;-69
2021/08/31 11:37:04;;;;;;;;;;;;;;;20.59;50.06;101851.66;5113683;28;19936;-69
2021/08/31 11:39:32;;;;;;;;;;;;;;;20.51;50.17;101851.19;5097967;28;19960;-69
2021/08/31 11:42:08;;;;;;;;;;;;;;;20.49;49.38;101856.66;5103634;28;19927;-70
2021/08/31 11:44:36;;;;;;;;;;;;;;;20.54;49.22;101849.22;5103475;28;19927;-70
2021/08/31 11:47:04;;;;;;;;;;;;;;;20.35;48.00;101848.44;5110804;28;19923;-68
2021/08/31 11:49:33;;;;;;;;;;;;;;;20.21;47.89;101849.13;5109395;28;20007;-69
2021/08/31 11:52:08;;;;;;;;;;;;;;;20.55;50.81;101847.41;5110368;27;20363;-65
2021/08/31 11:54:39;;;;;;;;;;;;;;;20.81;48.94;101846.06;5103424;28;20446;-66
2021/08/31 11:57:13;;;;;;;;;;;;;;;20.60;47.10;101841.81;5099647;28;19986;-66
2021/08/31 11:59:42;;;;;;;;;;;;;;;20.45;47.05;101849.72;5104638;28;19936;-66
2021/08/31 12:02:11;;;;;;;;;;;;;;;19.10;51.02;101849.94;5101392;28;19947;-66
2021/08/31 12:04:39;;;;;;;;;;;;;;;18.75;53.33;101849.69;5112019;28;19995;-66
2021/08/31 12:07:11;;;;;;;;;;;;;;;18.76;54.82;101843.41;5109235;28;19928;-65
2021/08/31 12:09:42;;;;;;;;;;;;;;;18.82;54.89;101850.28;5096225;28;19991;-66
2021/08/31 12:12:11;;;;;;;;;;;;;;;18.73;55.46;101851.59;5102713;28;20466;-65
2021/08/31 12:14:40;;;;;;;;;;;;;;;18.75;55.63;101847.00;5105553;28;19977;-65
2021/08/31 12:17:08;;;;;;;;;;;;;;;18.69;55.88;101840.13;5105826;28;20007;-65
2021/08/31 12:19:36;;;;;;;;;;;;;;;18.63;56.14;101843.06;5112646;28;19928;-64
2021/08/31 12:22:05;;;;;;;;;;;;;;;18.63;55.94;101837.69;5099432;28;19928;-65
2021/08/31 12:24:35;;;;;;;;;;;;;;;18.54;56.17;101839.00;5098151;28;20387;-66
2021/08/31 12:27:11;;;;;;;;;;;;;;;18.63;57.05;101843.06;5106311;28;19955;-64
2021/08/31 12:29:53;;;;;;;;;;;;;;;18.54;56.79;101844.34;5106334;28;20057;-65
2021/08/31 12:32:27;;;;;;;;;;;;;;;18.15;54.64;101847.78;5109642;28;19998;-66
2021/08/31 12:34:56;;;;;;;;;;;;;;;17.99;55.00;101844.88;5106421;28;19934;-66
2021/08/31 12:37:25;;;;;;;;;;;;;;;18.39;56.17;101842.34;5101603;28;19938;-65
2021/08/31 12:40:08;;;;;;;;;;;;;;;18.53;56.26;101839.03;5099603;28;19992;-66
2021/08/31 12:42:38;;;;;;;;;;;;;;;18.52;56.55;101832.81;5103029;28;19928;-65
2021/08/31 12:45:07;;;;;;;;;;;;;;;18.56;56.79;101838.91;5104979;28;19951;-66
2021/08/31 12:47:35;;;;;;;;;;;;;;;18.54;56.80;101827.38;5105942;28;19927;-66